createdAt,value
2023-02-14T06:44:38.669Z,3.55
2023-02-14T06:47:04.989Z,3.55
2023-02-14T06:49:31.404Z,3.60
2023-02-14T06:51:57.685Z,3.68
2023-02-14T06:54:23.981Z,3.73
2023-02-14T06:56:50.397Z,3.79
2023-02-14T06:59:17.053Z,3.89
2023-02-14T07:01:43.328Z,3.94
2023-02-14T07:04:09.637Z,3.96
2023-02-14T07:06:37.152Z,4.11
2023-02-14T07:09:04.079Z,4.09
2023-02-14T07:11:30.361Z,4.16
2023-02-14T07:13:56.662Z,4.16
2023-02-14T07:16:22.975Z,4.20
2023-02-14T07:18:49.267Z,4.16
2023-02-14T07:21:15.895Z,4.19
2023-02-14T07:23:42.316Z,4.13
2023-02-14T07:26:08.596Z,4.25
2023-02-14T07:28:34.884Z,4.30
2023-02-14T07:31:01.850Z,4.23
2023-02-14T07:33:28.659Z,4.24
2023-02-14T07:35:54.985Z,4.23
2023-02-14T07:38:21.274Z,4.18
2023-02-14T07:40:47.549Z,4.21
2023-02-14T07:43:13.909Z,4.24
2023-02-14T07:45:40.209Z,4.24
2023-02-14T07:48:06.513Z,4.35
2023-02-14T07:50:32.801Z,4.37
2023-02-14T07:52:59.067Z,4.37
2023-02-14T07:55:25.334Z,4.39
2023-02-14T07:57:51.902Z,4.41
2023-02-14T08:00:18.792Z,4.46
2023-02-14T08:02:45.111Z,4.43
2023-02-14T08:05:11.421Z,4.46
2023-02-14T08:07:37.838Z,4.50
2023-02-14T08:10:04.616Z,4.53
2023-02-14T08:12:30.919Z,4.52
2023-02-14T08:14:57.227Z,4.55
2023-02-14T08:17:23.560Z,4.55
2023-02-14T08:19:49.852Z,4.57
2023-02-14T08:22:16.125Z,4.57
2023-02-14T08:24:42.384Z,4.60
2023-02-14T08:27:08.653Z,4.63
2023-02-14T08:29:35.068Z,4.65
2023-02-14T08:32:01.629Z,4.66
2023-02-14T08:34:27.977Z,4.70
2023-02-14T08:36:54.489Z,4.69
2023-02-14T08:39:20.762Z,4.78
2023-02-14T08:41:47.072Z,4.75
2023-02-14T08:44:13.414Z,4.78
2023-02-14T08:46:39.778Z,4.82
2023-02-14T08:49:06.118Z,4.83
2023-02-14T08:51:32.442Z,4.77
2023-02-14T08:53:58.759Z,4.77
2023-02-14T08:56:25.060Z,4.82
2023-02-14T08:58:52.636Z,4.95
2023-02-14T09:01:19.327Z,5.05
2023-02-14T09:03:45.732Z,4.98
2023-02-14T09:06:15.018Z,4.94
2023-02-14T09:08:41.394Z,4.93
2023-02-14T09:11:20.240Z,4.93
2023-02-14T09:13:46.838Z,4.94
2023-02-14T09:16:15.238Z,4.99
2023-02-14T09:18:41.574Z,5.08
2023-02-14T09:21:19.959Z,5.04
2023-02-14T09:23:46.316Z,5.01
2023-02-14T09:26:14.867Z,5.11
2023-02-14T09:28:41.388Z,5.08
2023-02-14T09:31:19.298Z,5.06
2023-02-14T09:33:47.472Z,5.06
2023-02-14T09:36:14.401Z,5.08
2023-02-14T09:38:40.688Z,5.21
2023-02-14T09:41:09.133Z,5.15
2023-02-14T09:43:38.912Z,5.12
2023-02-14T09:46:11.734Z,5.17
2023-02-14T09:48:42.982Z,5.21
2023-02-14T09:51:20.854Z,5.17
2023-02-14T09:53:56.753Z,5.24
2023-02-14T09:56:30.216Z,5.23
2023-02-14T09:59:24.094Z,5.22
2023-02-14T10:02:03.680Z,5.26
2023-02-14T10:04:41.656Z,5.31
2023-02-14T10:07:29.700Z,5.40
2023-02-14T10:10:20.010Z,5.35
2023-02-14T10:12:52.326Z,5.42
2023-02-14T10:15:23.403Z,5.45
2023-02-14T10:17:56.671Z,5.35
2023-02-14T10:20:28.675Z,5.36
2023-02-14T10:23:02.698Z,5.31
2023-02-14T10:25:37.385Z,5.31
2023-02-14T10:28:03.880Z,5.33
2023-02-14T10:30:38.508Z,5.41
2023-02-14T10:33:16.413Z,5.52
2023-02-14T10:36:03.073Z,5.53
2023-02-14T10:38:50.008Z,5.50
2023-02-14T10:41:49.990Z,5.50
2023-02-14T10:44:24.103Z,5.58
2023-02-14T10:47:01.386Z,5.57
2023-02-14T10:49:54.615Z,5.58
2023-02-14T10:52:32.034Z,5.65
2023-02-14T10:55:02.068Z,5.72
2023-02-14T10:57:32.244Z,5.76
2023-02-14T11:00:01.952Z,5.76
2023-02-14T11:02:32.911Z,5.84
2023-02-14T11:05:02.268Z,5.76
2023-02-14T11:07:28.576Z,5.79
2023-02-14T11:09:55.823Z,5.77
2023-02-14T11:12:39.522Z,5.83
2023-02-14T11:15:21.646Z,5.93
2023-02-14T11:17:48.443Z,5.97
2023-02-14T11:20:23.250Z,5.91
2023-02-14T11:22:50.261Z,6.02
2023-02-14T11:25:23.161Z,5.84
2023-02-14T11:28:00.554Z,5.86
2023-02-14T11:30:45.238Z,5.83
2023-02-14T11:33:38.438Z,5.84
2023-02-14T11:36:10.940Z,5.91
2023-02-14T11:38:38.670Z,5.95
2023-02-14T11:41:07.593Z,6.02
2023-02-14T11:43:40.166Z,6.03
2023-02-14T11:46:21.484Z,6.06
2023-02-14T11:49:33.587Z,5.93
2023-02-14T11:52:10.222Z,6.00
2023-02-14T11:54:40.089Z,5.89
2023-02-14T11:57:12.036Z,5.78
2023-02-14T11:59:43.892Z,5.97
2023-02-14T12:02:24.041Z,5.98
2023-02-14T12:04:53.986Z,5.89
2023-02-14T12:07:25.974Z,6.00
2023-02-14T12:10:15.872Z,5.90
2023-02-14T12:12:58.408Z,5.85
2023-02-14T12:15:26.874Z,5.86
2023-02-14T12:18:21.232Z,5.87
2023-02-14T12:21:15.459Z,5.95
2023-02-14T12:24:06.735Z,5.94
2023-02-14T12:26:36.306Z,5.88
2023-02-14T12:29:15.007Z,6.01
2023-02-14T12:31:43.075Z,5.90
2023-02-14T12:34:13.090Z,5.90
2023-02-14T12:37:27.086Z,5.96
2023-02-14T12:40:21.576Z,6.06
2023-02-14T12:43:12.277Z,6.04
2023-02-14T12:45:53.019Z,6.04
2023-02-14T12:48:44.103Z,6.00
2023-02-14T12:51:32.416Z,6.04
2023-02-14T12:54:19.240Z,6.04
2023-02-14T12:56:57.538Z,5.94
2023-02-14T12:59:32.106Z,5.99
2023-02-14T13:02:25.040Z,5.95
2023-02-14T13:05:16.167Z,6.07
2023-02-14T13:07:45.171Z,6.03
2023-02-14T13:10:43.445Z,6.02
2023-02-14T13:13:19.548Z,5.90
2023-02-14T13:16:03.805Z,5.86
2023-02-14T13:18:56.723Z,5.96
2023-02-14T13:21:28.864Z,6.04
2023-02-14T13:24:14.704Z,6.10
2023-02-14T13:26:45.680Z,5.96
2023-02-14T13:29:36.644Z,5.77
2023-02-14T13:32:04.265Z,5.86
2023-02-14T13:34:34.746Z,5.85
2023-02-14T13:37:02.943Z,5.88
2023-02-14T13:39:40.934Z,5.95
2023-02-14T13:42:07.722Z,6.04
2023-02-14T13:44:43.070Z,5.99
2023-02-14T13:47:21.715Z,5.97
2023-02-14T13:49:54.542Z,6.08
2023-02-14T13:52:44.954Z,6.11
2023-02-14T13:55:20.105Z,5.96
2023-02-14T13:57:59.352Z,5.82
2023-02-14T14:00:44.142Z,5.94
2023-02-14T14:03:35.114Z,5.88
2023-02-14T14:06:11.189Z,5.86
2023-02-14T14:08:44.267Z,5.87
2023-02-14T14:11:33.283Z,5.94
2023-02-14T14:14:24.030Z,6.02
2023-02-14T14:16:58.404Z,6.02
2023-02-14T14:19:24.636Z,6.13
2023-02-14T14:22:03.347Z,6.18
2023-02-14T14:24:40.717Z,6.15
2023-02-14T14:27:16.228Z,6.09
2023-02-14T14:29:52.819Z,6.00
2023-02-14T14:32:21.603Z,5.97
2023-02-14T14:34:53.134Z,6.08
2023-02-14T14:37:25.908Z,5.77
2023-02-14T14:39:59.157Z,5.81
2023-02-14T14:42:29.855Z,5.81
2023-02-14T14:45:00.946Z,5.76
2023-02-14T14:47:45.263Z,5.95
2023-02-14T14:50:19.602Z,6.04
2023-02-14T14:52:48.883Z,6.08
2023-02-14T14:55:22.665Z,5.93
2023-02-14T14:57:55.192Z,5.97
2023-02-14T15:00:28.813Z,5.78
2023-02-14T15:03:05.888Z,5.61
2023-02-14T15:05:41.393Z,5.67
2023-02-14T15:08:13.612Z,5.82
2023-02-14T15:10:40.304Z,5.90
2023-02-14T15:13:12.899Z,5.78
2023-02-14T15:15:39.358Z,5.68
2023-02-14T15:18:07.921Z,5.51
2023-02-14T15:20:34.556Z,5.43
2023-02-14T15:23:01.765Z,5.43
2023-02-14T15:25:33.015Z,5.55
2023-02-14T15:28:00.165Z,5.62
2023-02-14T15:30:30.785Z,5.70
2023-02-14T15:32:57.841Z,5.63
2023-02-14T15:35:28.621Z,5.61
2023-02-14T15:37:57.787Z,5.58
2023-02-14T15:40:26.994Z,5.52
2023-02-14T15:42:55.005Z,5.52
2023-02-14T15:45:27.313Z,5.55
2023-02-14T15:48:02.058Z,5.48
2023-02-14T15:50:35.291Z,5.39
2023-02-14T15:53:23.951Z,5.46
2023-02-14T15:55:50.677Z,5.42
2023-02-14T15:58:37.212Z,5.31
2023-02-14T16:01:04.363Z,5.25
2023-02-14T16:03:35.068Z,5.31
2023-02-14T16:06:01.772Z,5.30
2023-02-14T16:08:35.382Z,5.25
2023-02-14T16:11:01.892Z,5.20
2023-02-14T16:13:37.101Z,5.18
2023-02-14T16:16:08.977Z,5.17
2023-02-14T16:18:36.635Z,5.20
2023-02-14T16:21:22.872Z,5.19
2023-02-14T16:24:07.245Z,5.13
2023-02-14T16:26:35.504Z,5.17
2023-02-14T16:29:06.201Z,5.14
2023-02-14T16:31:33.599Z,5.08
2023-02-14T16:34:00.147Z,5.09
2023-02-14T16:36:28.801Z,5.13
2023-02-14T16:38:55.822Z,5.10
2023-02-14T16:41:28.119Z,5.10
2023-02-14T16:43:55.820Z,5.11
2023-02-14T16:46:25.376Z,5.09
2023-02-14T16:48:51.918Z,5.01
2023-02-14T16:51:21.824Z,5.04
2023-02-14T16:53:49.579Z,4.95
2023-02-14T16:56:33.143Z,4.95
2023-02-14T16:58:59.798Z,4.90
2023-02-14T17:01:26.256Z,4.87
2023-02-14T17:03:52.622Z,4.82
2023-02-14T17:06:22.682Z,4.94
2023-02-14T17:08:52.100Z,4.88
2023-02-14T17:11:19.458Z,4.79
2023-02-14T17:13:47.623Z,4.91
2023-02-14T17:16:15.797Z,4.99
2023-02-14T17:18:46.059Z,5.04
2023-02-14T17:21:12.391Z,5.01
2023-02-14T17:23:38.687Z,4.98
2023-02-14T17:26:05.032Z,4.94
2023-02-14T17:28:31.720Z,4.85
2023-02-14T17:31:00.601Z,4.71
2023-02-14T17:33:27.120Z,4.65
2023-02-14T17:35:53.410Z,4.68
2023-02-14T17:38:19.694Z,4.63
2023-02-14T17:40:45.985Z,4.66
2023-02-14T17:43:12.264Z,4.58
2023-02-14T17:45:38.593Z,4.57
2023-02-14T17:48:04.971Z,4.57
2023-02-14T17:50:31.244Z,4.57
2023-02-14T17:52:57.939Z,4.62
2023-02-14T17:55:24.243Z,4.57
2023-02-14T17:57:50.534Z,4.51
2023-02-14T18:00:17.423Z,4.46
2023-02-14T18:02:43.796Z,4.42
2023-02-14T18:05:10.129Z,4.52
2023-02-14T18:07:36.471Z,4.44
2023-02-14T18:10:02.903Z,4.42
2023-02-14T18:12:29.263Z,4.36
2023-02-14T18:14:55.600Z,4.38
2023-02-14T18:17:22.443Z,4.35
2023-02-14T18:19:48.746Z,4.35
2023-02-14T18:22:15.068Z,4.39
2023-02-14T18:24:41.509Z,4.29
2023-02-14T18:27:07.792Z,4.31
2023-02-14T18:29:35.344Z,4.23
2023-02-14T18:32:02.960Z,4.33
2023-02-14T18:34:29.245Z,4.38
2023-02-14T18:36:55.564Z,4.31
2023-02-14T18:39:21.961Z,4.34
2023-02-14T18:41:48.429Z,4.43
2023-02-14T18:44:14.766Z,4.37
2023-02-14T18:46:41.188Z,4.39
2023-02-14T18:49:07.475Z,4.29
2023-02-14T18:51:36.278Z,4.29
2023-02-14T18:54:03.817Z,4.25
2023-02-14T18:56:35.619Z,4.21
2023-02-14T18:59:05.527Z,4.30
2023-02-14T19:01:34.069Z,4.32
2023-02-14T19:04:01.221Z,4.32
2023-02-14T19:06:30.009Z,4.36
2023-02-14T19:08:58.315Z,4.33
2023-02-14T19:11:27.216Z,4.32
2023-02-14T19:13:56.512Z,4.36
2023-02-14T19:16:26.206Z,4.42
2023-02-14T19:18:53.368Z,4.24
2023-02-14T19:21:25.605Z,4.29
2023-02-14T19:23:53.752Z,4.30
2023-02-14T19:26:23.347Z,4.36
2023-02-14T19:28:55.498Z,4.37
2023-02-14T19:31:23.260Z,4.22
2023-02-14T19:33:50.354Z,4.30
2023-02-14T19:36:19.363Z,4.30
2023-02-14T19:38:49.283Z,4.30
2023-02-14T19:41:19.543Z,4.21
2023-02-14T19:43:46.876Z,4.19
2023-02-14T19:46:15.756Z,4.21
2023-02-14T19:48:42.586Z,4.27
2023-02-14T19:51:14.676Z,4.18
2023-02-14T19:53:41.054Z,4.13
2023-02-14T19:56:07.341Z,4.24
2023-02-14T19:58:33.599Z,4.27
2023-02-14T20:01:00.565Z,4.31
2023-02-14T20:03:27.142Z,4.31
2023-02-14T20:05:53.485Z,4.29
2023-02-14T20:08:19.801Z,4.30
2023-02-14T20:10:46.107Z,4.30
2023-02-14T20:13:12.357Z,4.30
2023-02-14T20:15:38.709Z,4.22
2023-02-14T20:18:05.041Z,4.22
2023-02-14T20:20:33.010Z,4.24
2023-02-14T20:22:59.995Z,4.30
2023-02-14T20:25:26.367Z,4.29
2023-02-14T20:27:53.678Z,4.23
2023-02-14T20:30:20.198Z,4.11
2023-02-14T20:32:46.509Z,4.09
2023-02-14T20:35:12.866Z,4.05
2023-02-14T20:37:39.150Z,4.10
